Time;durP1;ratioP1;P1;durP2;ratioP2;P2;SDS_P1;SDS_P2;PMS_P1;PMS_P2;Temp;Humidity;BMP_temperature;BMP_pressure;BME280_temperature;BME280_humidity;BME280_pressure;Samples;Min_cycle;Max_cycle;Signal;HPM_P1;HPM_P2
2023/10/17 00:02:08;;;;;;;10.83;9.63;;;9.80;99.90;;;;;;4956693;28;20408;-69
2023/10/17 00:04:35;;;;;;;17.57;10.33;;;9.80;99.90;;;;;;4957284;28;20451;-69
2023/10/17 00:07:02;;;;;;;13.93;10.30;;;9.80;99.90;;;;;;4941464;28;20809;-69
2023/10/17 00:09:29;;;;;;;11.10;10.00;;;9.60;99.90;;;;;;4974417;28;20895;-69
2023/10/17 00:12:09;;;;;;;18.10;9.57;;;9.70;99.90;;;;;;4973542;28;20930;-69
2023/10/17 00:14:35;;;;;;;10.93;9.93;;;9.60;99.90;;;;;;4974919;28;20389;-69
2023/10/17 00:17:05;;;;;;;10.90;9.80;;;9.60;99.90;;;;;;4968143;28;20431;-69
2023/10/17 00:19:31;;;;;;;10.90;9.80;;;9.60;99.90;;;;;;4955070;29;20882;-69
2023/10/17 00:22:03;;;;;;;15.97;9.97;;;9.60;99.90;;;;;;4969462;28;20415;-69
2023/10/17 00:24:29;;;;;;;11.03;9.20;;;9.70;99.90;;;;;;4974554;28;20413;-69
2023/10/17 00:26:55;;;;;;;17.17;9.67;;;9.70;99.90;;;;;;4972530;28;20475;-69
2023/10/17 00:29:21;;;;;;;28.23;9.97;;;9.70;99.90;;;;;;4974218;28;20431;-69
2023/10/17 00:31:46;;;;;;;16.33;9.63;;;9.70;99.90;;;;;;4973698;28;20711;-63
2023/10/17 00:34:23;;;;;;;15.13;10.20;;;9.70;99.90;;;;;;4973418;28;20256;-69
2023/10/17 00:36:50;;;;;;;15.60;9.60;;;9.70;99.90;;;;;;4973456;28;20171;-62
2023/10/17 00:39:30;;;;;;;10.73;9.63;;;9.70;99.90;;;;;;4973474;28;20489;-70
2023/10/17 00:44:36;;;;;;;10.63;9.53;;;9.80;99.90;;;;;;4954823;29;20420;-70
2023/10/17 00:47:04;;;;;;;10.07;9.07;;;9.80;99.90;;;;;;4969398;28;20464;-69
2023/10/17 00:49:37;;;;;;;10.80;9.50;;;9.70;99.90;;;;;;4973656;28;20433;-70
2023/10/17 00:52:04;;;;;;;15.47;10.00;;;9.60;99.90;;;;;;4973057;28;20916;-70
2023/10/17 00:54:32;;;;;;;14.10;9.57;;;9.70;99.90;;;;;;4974120;28;20416;-69
2023/10/17 00:57:05;;;;;;;10.67;9.60;;;9.80;99.90;;;;;;4972054;28;20429;-70
2023/10/17 00:59:31;;;;;;;13.57;9.90;;;9.80;99.90;;;;;;4973597;28;20843;-70
2023/10/17 01:02:06;;;;;;;13.80;11.27;;;9.80;99.90;;;;;;4955365;28;20464;-69
2023/10/17 01:04:33;;;;;;;10.43;9.43;;;9.70;99.90;;;;;;4954540;29;20397;-69
2023/10/17 01:07:05;;;;;;;11.43;9.53;;;9.70;99.90;;;;;;4965224;28;20507;-69
2023/10/17 01:09:34;;;;;;;9.07;8.17;;;9.70;99.90;;;;;;4972285;28;20813;-70
2023/10/17 01:12:09;;;;;;;10.57;9.57;;;9.70;99.90;;;;;;4953525;29;20441;-69
2023/10/17 01:14:35;;;;;;;10.00;9.00;;;9.70;99.90;;;;;;4968622;28;20857;-69
2023/10/17 01:17:05;;;;;;;9.37;8.67;;;9.70;99.90;;;;;;4972460;28;20455;-69
2023/10/17 01:19:33;;;;;;;10.17;9.10;;;9.80;99.90;;;;;;4973531;28;20413;-70
2023/10/17 01:21:59;;;;;;;9.40;8.60;;;9.80;99.90;;;;;;4956976;28;20510;-70
2023/10/17 01:24:28;;;;;;;9.00;8.27;;;9.80;99.90;;;;;;4960344;28;20433;-70
2023/10/17 01:26:55;;;;;;;9.50;8.70;;;9.80;99.90;;;;;;4971400;28;20530;-67
2023/10/17 01:29:21;;;;;;;9.60;8.67;;;9.90;99.90;;;;;;4972671;28;20433;-70
2023/10/17 01:31:48;;;;;;;9.50;8.60;;;9.90;99.90;;;;;;4972910;28;20572;-70
2023/10/17 01:34:15;;;;;;;9.83;8.93;;;9.90;99.90;;;;;;4972376;28;20409;-68
2023/10/17 01:36:44;;;;;;;9.30;8.40;;;9.90;99.90;;;;;;4973295;28;20417;-69
2023/10/17 01:39:10;;;;;;;9.57;8.73;;;9.80;99.90;;;;;;4954837;28;20949;-69
2023/10/17 01:41:38;;;;;;;9.83;8.93;;;9.90;99.90;;;;;;4973293;28;20417;-69
2023/10/17 01:44:04;;;;;;;8.70;8.00;;;9.90;99.90;;;;;;4972204;28;20477;-70
2023/10/17 01:46:30;;;;;;;8.90;8.20;;;9.90;99.90;;;;;;4973051;28;20426;-70
2023/10/17 01:48:57;;;;;;;11.83;8.90;;;9.80;99.90;;;;;;4972395;28;20510;-68
2023/10/17 01:51:24;;;;;;;9.87;8.87;;;9.70;99.90;;;;;;4973154;28;20608;-69
2023/10/17 01:53:51;;;;;;;9.30;8.10;;;9.70;99.90;;;;;;4970916;28;20771;-69
2023/10/17 01:56:22;;;;;;;10.50;9.20;;;9.70;99.90;;;;;;4971405;28;20445;-69
2023/10/17 01:58:48;;;;;;;10.17;9.23;;;9.60;99.90;;;;;;4972954;28;20452;-70
2023/10/17 02:01:17;;;;;;;10.60;9.50;;;9.50;99.90;;;;;;4972514;28;20508;-69
2023/10/17 02:03:44;;;;;;;9.47;8.67;;;9.50;99.90;;;;;;4958097;28;20998;-69
2023/10/17 02:06:14;;;;;;;10.30;8.90;;;9.60;99.90;;;;;;4955367;28;20432;-69
2023/10/17 02:08:42;;;;;;;9.50;8.67;;;9.50;99.90;;;;;;4973048;28;20427;-69
2023/10/17 02:11:12;;;;;;;9.20;8.40;;;9.50;99.90;;;;;;4972011;28;20421;-69
2023/10/17 02:13:41;;;;;;;9.67;8.87;;;9.50;99.90;;;;;;4973244;28;20428;-69
2023/10/17 02:16:10;;;;;;;9.77;8.83;;;9.60;99.90;;;;;;4972132;28;20503;-68
2023/10/17 02:18:36;;;;;;;9.50;8.70;;;9.60;99.90;;;;;;4972568;28;21032;-69
2023/10/17 02:21:04;;;;;;;9.53;8.80;;;9.60;99.90;;;;;;4970857;28;20443;-68
2023/10/17 02:23:39;;;;;;;9.30;8.50;;;9.60;99.90;;;;;;4972904;28;20414;-69
2023/10/17 02:26:12;;;;;;;9.23;8.33;;;9.60;99.90;;;;;;4971631;28;20910;-69
2023/10/17 02:28:47;;;;;;;9.37;8.47;;;9.70;99.90;;;;;;4972466;28;20489;-69
2023/10/17 02:31:14;;;;;;;8.20;7.60;;;9.60;99.90;;;;;;4956189;28;20892;-69
2023/10/17 02:33:43;;;;;;;9.27;8.47;;;9.60;99.90;;;;;;4972513;28;20419;-68
2023/10/17 02:36:16;;;;;;;9.40;8.70;;;9.60;99.90;;;;;;4971542;28;21002;-69
2023/10/17 02:38:46;;;;;;;10.47;9.57;;;9.60;99.90;;;;;;4972811;28;20522;-69
2023/10/17 02:41:18;;;;;;;9.70;8.90;;;9.60;99.90;;;;;;4974039;28;20433;-68
2023/10/17 02:43:54;;;;;;;10.70;9.80;;;9.60;99.90;;;;;;4976221;28;20423;-68
2023/10/17 02:46:27;;;;;;;10.67;9.67;;;9.60;99.90;;;;;;4973047;28;20454;-68
2023/10/17 02:48:57;;;;;;;10.50;9.60;;;9.70;99.90;;;;;;4972422;28;20481;-68
2023/10/17 02:53:55;;;;;;;10.03;8.33;;;9.70;99.90;;;;;;4975769;28;20427;-68
2023/10/17 02:56:26;;;;;;;9.50;8.70;;;9.70;99.90;;;;;;4970779;28;20431;-69
2023/10/17 02:59:04;;;;;;;9.87;9.00;;;9.60;99.90;;;;;;4956644;29;20454;-68
2023/10/17 03:01:31;;;;;;;9.03;8.13;;;9.60;99.90;;;;;;4968401;28;20467;-68
2023/10/17 03:04:10;;;;;;;9.47;8.40;;;9.60;99.90;;;;;;4959380;28;20423;-68
2023/10/17 03:06:40;;;;;;;10.30;9.30;;;9.60;99.90;;;;;;4956386;29;20911;-68
2023/10/17 03:12:06;;;;;;;10.37;9.47;;;9.40;99.90;;;;;;4974693;28;20523;-68
2023/10/17 03:17:10;;;;;;;9.27;8.43;;;9.30;99.90;;;;;;4972724;28;20428;-68
2023/10/17 03:19:38;;;;;;;10.17;9.13;;;9.30;99.90;;;;;;4975311;28;20416;-69
2023/10/17 03:24:59;;;;;;;10.27;9.37;;;9.20;99.90;;;;;;4974772;28;20417;-69
2023/10/17 03:27:35;;;;;;;10.80;9.90;;;9.30;99.90;;;;;;4957162;28;20465;-69
2023/10/17 03:30:07;;;;;;;10.03;9.03;;;9.30;99.90;;;;;;4974466;28;20420;-63
2023/10/17 03:32:34;;;;;;;10.17;9.27;;;9.30;99.90;;;;;;4975183;28;20771;-69
2023/10/17 03:35:03;;;;;;;9.90;8.90;;;9.20;99.90;;;;;;4972277;28;20407;-61
2023/10/17 03:37:29;;;;;;;10.17;9.20;;;9.20;99.90;;;;;;4955793;28;20815;-69
2023/10/17 03:39:58;;;;;;;8.90;8.10;;;9.20;99.90;;;;;;4938663;29;20915;-69
2023/10/17 03:42:41;;;;;;;10.20;9.17;;;9.30;99.90;;;;;;4963382;28;20437;-70
2023/10/17 03:45:35;;;;;;;13.30;9.30;;;9.30;99.90;;;;;;4972853;28;20835;-68
2023/10/17 03:47:59;;;;;;;10.40;9.40;;;9.20;99.90;;;;;;4972970;28;20484;-66
2023/10/17 03:50:34;;;;;;;10.87;9.87;;;9.20;99.90;;;;;;4941015;28;20960;-70
2023/10/17 03:53:14;;;;;;;10.07;9.07;;;9.20;99.90;;;;;;4973368;28;20420;-71
2023/10/17 03:55:42;;;;;;;9.37;8.47;;;9.30;99.90;;;;;;4956110;28;20423;-70
2023/10/17 04:00:50;;;;;;;10.13;9.17;;;9.30;99.90;;;;;;4967625;28;20501;-70
2023/10/17 04:03:21;;;;;;;184.30;99.13;;;9.30;99.90;;;;;;4955550;29;20418;-71
2023/10/17 04:05:52;;;;;;;31.00;22.77;;;9.30;99.90;;;;;;4955495;29;20949;-70
2023/10/17 04:08:30;;;;;;;11.83;10.60;;;9.40;99.90;;;;;;4961030;28;20460;-75
2023/10/17 04:11:14;;;;;;;9.73;8.90;;;9.50;99.90;;;;;;4957054;28;20458;-72
2023/10/17 04:13:40;;;;;;;10.33;9.33;;;9.40;99.90;;;;;;4956047;28;20443;-73
2023/10/17 04:16:16;;;;;;;9.93;9.13;;;9.50;99.90;;;;;;4974334;28;20511;-72
2023/10/17 04:18:45;;;;;;;8.83;8.03;;;9.40;99.90;;;;;;4975002;28;20200;-72
2023/10/17 04:21:26;;;;;;;10.77;9.70;;;9.40;99.90;;;;;;4961621;28;20421;-67
2023/10/17 04:23:52;;;;;;;10.37;9.37;;;9.30;99.90;;;;;;4955299;29;20823;-67
2023/10/17 04:26:18;;;;;;;11.50;8.60;;;9.20;99.90;;;;;;4954893;28;20412;-65
2023/10/17 04:28:50;;;;;;;10.50;9.50;;;9.20;99.90;;;;;;4957778;28;20425;-67
2023/10/17 04:31:24;;;;;;;10.40;9.50;;;9.20;99.90;;;;;;4972500;28;20188;-67
2023/10/17 04:33:56;;;;;;;10.30;9.40;;;9.30;99.90;;;;;;4974379;28;20788;-67
2023/10/17 04:36:28;;;;;;;10.43;9.53;;;9.30;99.90;;;;;;4973482;28;20423;-67
2023/10/17 04:42:04;;;;;;;9.23;8.30;;;9.30;99.90;;;;;;4974561;28;20396;-68
2023/10/17 04:44:36;;;;;;;8.90;8.10;;;9.30;99.90;;;;;;4973124;28;20471;-66
2023/10/17 04:49:35;;;;;;;9.30;8.40;;;9.30;99.90;;;;;;4974264;28;20423;-67
2023/10/17 04:52:08;;;;;;;10.40;8.97;;;9.30;99.90;;;;;;4974087;28;20400;-68
2023/10/17 04:57:05;;;;;;;10.33;9.43;;;9.30;99.90;;;;;;4971934;28;20937;-69
2023/10/17 06:18:49;;;;;;;8.33;7.53;;;8.90;99.90;;;;;;4976109;28;20452;-67
2023/10/17 06:21:19;;;;;;;10.40;9.30;;;9.00;99.90;;;;;;4976219;28;20510;-69
2023/10/17 06:31:56;;;;;;;10.30;9.30;;;9.30;99.90;;;;;;4976607;28;20396;-67
2023/10/17 06:34:23;;;;;;;10.30;9.30;;;9.40;99.90;;;;;;4959104;28;20478;-68
2023/10/17 06:36:55;;;;;;;10.50;9.40;;;9.40;99.90;;;;;;4958706;28;20521;-68
2023/10/17 06:39:24;;;;;;;10.77;9.67;;;9.50;99.90;;;;;;4975957;28;20480;-67
2023/10/17 06:42:00;;;;;;;17.37;13.87;;;9.50;99.90;;;;;;4976533;28;20421;-68
2023/10/17 06:44:30;;;;;;;10.77;9.70;;;9.50;99.90;;;;;;4974919;28;20515;-68
2023/10/17 06:46:57;;;;;;;10.93;10.00;;;9.60;99.90;;;;;;4976336;28;20474;-67
2023/10/17 06:54:41;;;;;;;11.33;10.23;;;9.60;99.90;;;;;;4971857;28;20767;-68
2023/10/17 06:57:19;;;;;;;12.27;11.00;;;9.60;99.90;;;;;;4976468;28;20425;-68
2023/10/17 07:00:00;;;;;;;13.23;9.97;;;9.60;99.90;;;;;;4970192;28;20487;-68
2023/10/17 07:02:41;;;;;;;9.83;8.83;;;9.70;99.90;;;;;;4971363;28;20412;-67
2023/10/17 07:05:08;;;;;;;9.70;8.80;;;9.70;99.90;;;;;;4974795;28;20529;-66
2023/10/17 07:07:41;;;;;;;10.93;9.17;;;9.60;99.90;;;;;;4956730;28;20793;-69
2023/10/17 07:13:41;;;;;;;11.27;9.23;;;9.60;99.90;;;;;;4969732;28;20457;-69
2023/10/17 07:16:16;;;;;;;16.80;14.17;;;9.50;99.90;;;;;;4974847;28;20827;-69
2023/10/17 07:18:51;;;;;;;12.23;10.60;;;9.60;99.90;;;;;;4975257;28;20970;-69
2023/10/17 07:21:22;;;;;;;11.50;10.30;;;9.50;99.90;;;;;;4972077;28;20419;-68
2023/10/17 07:23:48;;;;;;;13.00;10.67;;;9.50;99.90;;;;;;4975334;28;20913;-69
2023/10/17 07:26:24;;;;;;;11.43;9.03;;;9.60;99.90;;;;;;4972696;28;20429;-68
2023/10/17 07:28:50;;;;;;;9.93;9.00;;;9.60;99.90;;;;;;4975157;28;20513;-69
2023/10/17 07:31:16;;;;;;;11.30;10.17;;;9.60;99.90;;;;;;4973928;28;20449;-70
2023/10/17 07:33:43;;;;;;;9.97;9.00;;;9.70;99.90;;;;;;4975000;28;20487;-71
2023/10/17 07:36:27;;;;;;;10.70;9.70;;;9.70;99.90;;;;;;4975548;28;20841;-67
2023/10/17 07:38:53;;;;;;;10.87;9.83;;;9.70;99.90;;;;;;4973952;28;20567;-69
2023/10/17 07:41:36;;;;;;;10.70;9.60;;;9.80;99.90;;;;;;4957810;28;20502;-69
2023/10/17 07:44:13;;;;;;;10.13;9.13;;;9.80;99.90;;;;;;4974584;28;20628;-70
2023/10/17 07:46:39;;;;;;;10.27;9.27;;;9.70;99.90;;;;;;4975156;28;20427;-70
2023/10/17 07:49:05;;;;;;;11.57;10.30;;;9.80;99.90;;;;;;4960806;28;20427;-68
2023/10/17 07:51:32;;;;;;;12.10;10.03;;;9.80;99.90;;;;;;4970729;28;20252;-68
2023/10/17 07:53:58;;;;;;;11.40;10.30;;;9.90;99.90;;;;;;4974438;28;20227;-69
2023/10/17 07:56:25;;;;;;;11.97;10.87;;;9.90;99.90;;;;;;4973992;28;20509;-69
2023/10/17 07:58:57;;;;;;;12.40;11.13;;;9.90;99.90;;;;;;4974082;28;20478;-69
2023/10/17 08:01:32;;;;;;;12.60;11.30;;;9.90;99.90;;;;;;4964695;28;20880;-69
2023/10/17 08:04:13;;;;;;;12.10;10.83;;;10.00;99.90;;;;;;4942973;28;20851;-70
2023/10/17 08:06:40;;;;;;;15.10;10.43;;;10.10;99.90;;;;;;4973864;28;20502;-69
2023/10/17 08:09:18;;;;;;;14.83;13.27;;;10.20;99.90;;;;;;4974780;28;20944;-69
2023/10/17 08:11:44;;;;;;;15.97;12.33;;;10.20;99.90;;;;;;4975146;28;20402;-69
2023/10/17 08:14:17;;;;;;;13.70;12.47;;;10.30;99.90;;;;;;4974927;28;20409;-69
2023/10/17 08:16:43;;;;;;;13.00;11.60;;;10.30;99.90;;;;;;4957223;28;20510;-69
2023/10/17 08:19:12;;;;;;;15.60;12.87;;;10.40;99.90;;;;;;4974707;28;20472;-69
2023/10/17 08:24:26;;;;;;;12.03;10.93;;;10.20;99.90;;;;;;4972616;28;20433;-69
2023/10/17 08:27:17;;;;;;;14.87;11.93;;;10.30;99.90;;;;;;4974570;28;20552;-69
2023/10/17 08:29:48;;;;;;;12.60;11.30;;;10.30;99.90;;;;;;4973333;28;20449;-69
2023/10/17 08:34:48;;;;;;;14.80;10.77;;;10.40;99.90;;;;;;4973317;28;20412;-69
2023/10/17 08:37:19;;;;;;;14.53;12.90;;;10.50;99.90;;;;;;4955380;28;20463;-69
2023/10/17 08:42:14;;;;;;;11.43;10.23;;;10.60;99.90;;;;;;4974492;28;20412;-68
2023/10/17 08:44:43;;;;;;;11.37;10.23;;;10.70;99.90;;;;;;4974261;28;20419;-68
2023/10/17 08:47:16;;;;;;;11.90;10.77;;;10.80;99.90;;;;;;4974450;28;20420;-68
2023/10/17 08:49:55;;;;;;;12.17;9.70;;;10.80;99.90;;;;;;4973442;28;20440;-67
2023/10/17 08:52:23;;;;;;;11.60;10.50;;;10.80;99.90;;;;;;4973687;28;20408;-67
2023/10/17 08:54:50;;;;;;;11.53;10.50;;;10.70;99.90;;;;;;4973928;28;20457;-68
2023/10/17 08:57:16;;;;;;;10.40;9.33;;;10.80;99.90;;;;;;4940636;28;20457;-64
2023/10/17 09:05:00;;;;;;;11.40;10.30;;;11.20;99.90;;;;;;4973829;28;20525;-68
2023/10/17 09:07:32;;;;;;;12.03;9.70;;;11.50;99.90;;;;;;4973219;28;20415;-68
2023/10/17 09:10:36;;;;;;;9.80;9.00;;;11.50;99.90;;;;;;4974114;28;20400;-68
2023/10/17 09:16:13;;;;;;;10.30;9.30;;;12.00;99.90;;;;;;4930757;28;20427;-68
2023/10/17 09:18:47;;;;;;;10.73;8.67;;;12.30;99.90;;;;;;4972235;28;20498;-67
2023/10/17 09:21:14;;;;;;;8.87;7.93;;;12.60;99.90;;;;;;4973706;28;20481;-67
2023/10/17 09:23:41;;;;;;;10.20;9.30;;;12.90;99.90;;;;;;4972379;28;20496;-67
2023/10/17 09:26:10;;;;;;;9.73;8.83;;;13.20;99.90;;;;;;4973357;28;20774;-69
2023/10/17 09:28:37;;;;;;;9.30;8.23;;;13.40;99.90;;;;;;4936511;29;20480;-67
2023/10/17 09:31:12;;;;;;;10.60;9.50;;;13.70;99.90;;;;;;4954547;28;20909;-67
2023/10/17 09:33:45;;;;;;;9.63;8.73;;;14.00;99.90;;;;;;4953992;28;20400;-67
2023/10/17 09:36:16;;;;;;;8.87;8.13;;;14.30;99.90;;;;;;4937326;29;20482;-67
2023/10/17 09:38:45;;;;;;;9.43;8.53;;;14.60;99.90;;;;;;4953806;28;20459;-69
2023/10/17 09:41:17;;;;;;;8.67;7.97;;;14.80;99.90;;;;;;4954493;29;20422;-67
2023/10/17 09:43:45;;;;;;;8.60;7.87;;;15.00;99.90;;;;;;4953852;28;20418;-68
2023/10/17 09:46:12;;;;;;;8.83;7.90;;;15.10;99.90;;;;;;4954517;28;20424;-69
2023/10/17 09:48:43;;;;;;;10.70;8.37;;;15.30;99.90;;;;;;4953985;28;20412;-69
2023/10/17 09:51:20;;;;;;;9.40;8.50;;;15.50;99.90;;;;;;4958726;28;20412;-68
2023/10/17 09:53:55;;;;;;;8.27;7.47;;;15.60;99.90;;;;;;4957393;28;20431;-68
2023/10/17 09:56:25;;;;;;;7.73;7.13;;;15.70;99.90;;;;;;4956281;29;20522;-67
2023/10/17 09:58:53;;;;;;;8.23;7.43;;;16.00;99.90;;;;;;4956886;29;20467;-68
2023/10/17 10:01:22;;;;;;;7.43;6.83;;;16.20;99.50;;;;;;4958100;28;20409;-68
2023/10/17 10:03:53;;;;;;;6.93;6.43;;;16.50;97.30;;;;;;4958165;28;20835;-68
2023/10/17 10:06:27;;;;;;;6.93;6.43;;;16.80;97.70;;;;;;4958440;28;20448;-69
2023/10/17 10:09:14;;;;;;;6.50;6.00;;;17.20;96.50;;;;;;4956433;29;20467;-68
2023/10/17 10:11:49;;;;;;;5.97;5.47;;;17.40;94.90;;;;;;4957391;29;20420;-68
2023/10/17 10:14:34;;;;;;;6.77;6.10;;;17.70;93.80;;;;;;4957540;28;20443;-69
2023/10/17 10:17:05;;;;;;;7.00;6.40;;;17.90;93.10;;;;;;4957531;28;20413;-68
2023/10/17 10:19:48;;;;;;;6.53;5.97;;;18.10;92.90;;;;;;4955901;28;20465;-68
2023/10/17 10:22:17;;;;;;;7.03;6.53;;;18.30;93.60;;;;;;4956627;29;20420;-69
2023/10/17 10:24:45;;;;;;;8.03;6.67;;;18.50;91.40;;;;;;4957099;28;20408;-68
2023/10/17 10:27:21;;;;;;;6.80;6.40;;;18.60;90.70;;;;;;4965322;28;20462;-70
2023/10/17 10:29:55;;;;;;;6.30;5.70;;;18.90;90.50;;;;;;4977025;28;20418;-70
2023/10/17 10:32:35;;;;;;;6.50;6.00;;;19.10;89.70;;;;;;4976704;28;20396;-69
2023/10/17 10:35:05;;;;;;;5.70;5.30;;;19.30;91.20;;;;;;4976672;28;20407;-69
2023/10/17 10:37:32;;;;;;;5.93;5.33;;;19.60;89.70;;;;;;4976109;28;20407;-69
2023/10/17 10:40:17;;;;;;;6.27;5.83;;;19.70;87.00;;;;;;4976824;28;20479;-69
2023/10/17 10:42:51;;;;;;;5.43;5.03;;;19.80;86.30;;;;;;4976093;28;20498;-68
2023/10/17 10:45:29;;;;;;;5.30;5.00;;;19.80;87.50;;;;;;4976831;28;20765;-69
2023/10/17 10:47:58;;;;;;;7.23;5.33;;;19.80;86.70;;;;;;4975303;28;20907;-68
2023/10/17 10:50:26;;;;;;;7.50;5.37;;;20.10;86.30;;;;;;4976023;28;20416;-68
2023/10/17 10:52:51;;;;;;;5.50;5.10;;;20.20;82.40;;;;;;4976389;28;20424;-69
2023/10/17 10:55:17;;;;;;;6.70;6.00;;;20.20;81.80;;;;;;4976513;28;20423;-69
2023/10/17 10:57:46;;;;;;;6.50;6.10;;;20.30;83.60;;;;;;4975992;28;20322;-69
2023/10/17 11:00:15;;;;;;;5.80;5.40;;;20.30;80.50;;;;;;4957939;28;20195;-69
2023/10/17 11:02:43;;;;;;;4.80;4.40;;;20.30;80.40;;;;;;4975311;28;20416;-69
2023/10/17 11:05:14;;;;;;;7.50;4.40;;;20.40;81.20;;;;;;4976272;28;20412;-69
2023/10/17 11:07:41;;;;;;;4.93;4.53;;;20.40;79.90;;;;;;4975708;28;20397;-68
2023/10/17 11:10:10;;;;;;;5.27;4.93;;;20.40;79.30;;;;;;4975185;28;20920;-69
2023/10/17 11:12:38;;;;;;;5.03;4.73;;;20.60;79.50;;;;;;4974892;28;20515;-69
2023/10/17 11:15:14;;;;;;;4.83;4.53;;;20.60;78.50;;;;;;4976106;28;20495;-69
2023/10/17 11:17:41;;;;;;;5.90;5.40;;;20.60;77.20;;;;;;4975392;28;20507;-69
2023/10/17 11:20:14;;;;;;;5.00;4.70;;;20.70;77.10;;;;;;4976078;28;20424;-69
2023/10/17 11:22:44;;;;;;;4.90;4.60;;;20.80;77.20;;;;;;4974703;28;20435;-69
2023/10/17 11:25:26;;;;;;;4.67;4.47;;;20.90;75.30;;;;;;4974057;28;20443;-69
2023/10/17 11:27:56;;;;;;;4.90;4.60;;;21.10;74.40;;;;;;4975965;28;20553;-69
2023/10/17 11:30:32;;;;;;;4.40;4.10;;;21.10;74.00;;;;;;4975834;28;20524;-69
2023/10/17 11:33:04;;;;;;;4.23;4.03;;;21.10;74.20;;;;;;4975927;28;20429;-69
2023/10/17 11:35:34;;;;;;;4.77;4.43;;;21.10;74.50;;;;;;4975223;28;20412;-68
2023/10/17 11:38:01;;;;;;;5.23;4.87;;;21.10;74.60;;;;;;4975830;28;20803;-69
2023/10/17 11:40:47;;;;;;;4.43;4.13;;;21.20;72.80;;;;;;4975139;28;20419;-68
2023/10/17 11:43:21;;;;;;;5.47;4.97;;;21.10;73.50;;;;;;4975708;28;20419;-69
2023/10/17 11:45:47;;;;;;;5.23;4.83;;;20.90;73.00;;;;;;4974986;28;20416;-69
2023/10/17 11:48:36;;;;;;;4.77;4.47;;;20.90;74.00;;;;;;4975608;28;20424;-69
2023/10/17 11:51:17;;;;;;;4.93;4.60;;;20.70;71.30;;;;;;4958337;28;20416;-69
2023/10/17 11:54:07;;;;;;;5.20;4.80;;;20.60;73.10;;;;;;4973865;28;20514;-69
2023/10/17 11:56:37;;;;;;;5.17;4.77;;;20.40;72.10;;;;;;4974604;28;20799;-69
2023/10/17 11:59:06;;;;;;;5.40;5.10;;;20.20;74.20;;;;;;4974958;28;20554;-69
2023/10/17 12:01:32;;;;;;;5.47;5.17;;;20.10;75.20;;;;;;4973339;28;20963;-69
2023/10/17 12:04:06;;;;;;;5.10;4.80;;;19.90;74.80;;;;;;4974876;28;20407;-69
2023/10/17 12:06:35;;;;;;;5.53;5.13;;;19.70;76.00;;;;;;4957104;28;20424;-68
2023/10/17 12:09:17;;;;;;;6.70;6.10;;;19.50;77.00;;;;;;4973497;28;20443;-69
2023/10/17 12:11:46;;;;;;;7.27;6.87;;;19.40;78.90;;;;;;4973805;28;20400;-69
2023/10/17 12:14:19;;;;;;;7.43;6.93;;;19.10;80.30;;;;;;4974144;28;20419;-69
2023/10/17 12:16:49;;;;;;;8.70;8.10;;;18.90;82.00;;;;;;4974729;28;20392;-68
2023/10/17 12:19:18;;;;;;;7.70;7.13;;;18.60;83.10;;;;;;4974908;28;20506;-70
2023/10/17 12:21:48;;;;;;;4.68;4.38;;;18.40;84.40;;;;;;4973148;28;20410;-72
2023/10/17 12:24:19;;;;;;;8.60;7.90;;;18.80;91.60;;;;;;4974623;28;20629;-67
2023/10/17 12:26:49;;;;;;;8.20;7.40;;;19.10;88.50;;;;;;4963229;28;20457;-67
2023/10/17 12:29:16;;;;;;;7.07;6.50;;;19.20;87.00;;;;;;4955618;28;20795;-67
2023/10/17 12:31:42;;;;;;;9.33;8.53;;;19.20;84.00;;;;;;4954794;29;20445;-67
2023/10/17 12:34:17;;;;;;;8.70;8.00;;;19.20;84.50;;;;;;5110221;27;20519;-65
2023/10/17 12:36:46;;;;;;;9.50;8.60;;;19.20;85.70;;;;;;5069822;28;20480;-68
2023/10/17 12:39:14;;;;;;;8.53;7.83;;;19.20;84.70;;;;;;5069842;28;20811;-68
2023/10/17 12:41:40;;;;;;;8.33;7.53;;;19.10;84.50;;;;;;5051663;28;20797;-67
2023/10/17 12:44:06;;;;;;;7.73;7.00;;;19.00;86.00;;;;;;5070060;28;20407;-67
2023/10/17 12:46:31;;;;;;;7.73;7.03;;;19.00;86.90;;;;;;5069362;28;20169;-66
2023/10/17 12:48:57;;;;;;;7.20;6.60;;;19.00;86.80;;;;;;5069682;28;20298;-66
2023/10/17 12:51:23;;;;;;;6.90;6.40;;;18.90;86.40;;;;;;5069753;28;20180;-66
2023/10/17 12:53:52;;;;;;;7.77;7.17;;;18.80;89.10;;;;;;5068959;28;20211;-66
2023/10/17 12:56:18;;;;;;;8.00;7.40;;;18.90;88.00;;;;;;5069728;28;20635;-68
2023/10/17 12:58:44;;;;;;;7.07;6.50;;;18.80;86.20;;;;;;5068981;28;20396;-65
2023/10/17 13:01:12;;;;;;;7.27;6.67;;;18.70;90.40;;;;;;5069520;28;20526;-66
2023/10/17 13:03:38;;;;;;;6.67;6.17;;;18.70;90.20;;;;;;5068437;28;20506;-66
2023/10/17 13:06:11;;;;;;;17.67;15.03;;;18.60;89.00;;;;;;5070605;28;20430;-67
2023/10/17 13:08:36;;;;;;;11.63;10.43;;;18.70;90.60;;;;;;5075827;28;20406;-70
2023/10/17 13:11:02;;;;;;;8.50;7.77;;;18.60;90.50;;;;;;5080146;28;20422;-72
2023/10/17 13:13:32;;;;;;;8.00;7.20;;;18.50;88.10;;;;;;5086404;28;20200;-72
2023/10/17 13:15:59;;;;;;;7.80;7.13;;;18.30;89.10;;;;;;5071233;28;20485;-71
2023/10/17 13:18:25;;;;;;;9.77;8.97;;;17.90;89.50;;;;;;5075424;28;20412;-72
2023/10/17 13:20:54;;;;;;;9.57;8.63;;;17.70;90.40;;;;;;5068554;28;20922;-71
2023/10/17 13:23:20;;;;;;;7.67;7.07;;;17.50;90.90;;;;;;5085669;28;20418;-72
2023/10/17 13:25:46;;;;;;;279.23;187.03;;;17.30;91.60;;;;;;5081853;28;20465;-71
2023/10/17 13:28:12;;;;;;;80.47;58.00;;;16.90;92.40;;;;;;5068880;28;20399;-72
2023/10/17 13:30:39;;;;;;;23.30;20.33;;;16.90;93.20;;;;;;5071908;28;20756;-72
2023/10/17 13:33:06;;;;;;;7.93;7.20;;;16.80;93.30;;;;;;5077815;28;20471;-73
2023/10/17 13:35:37;;;;;;;7.73;7.00;;;16.70;93.30;;;;;;5068530;28;20447;-61
2023/10/17 13:38:03;;;;;;;8.53;7.83;;;16.70;94.10;;;;;;5067866;28;20417;-73
2023/10/17 13:40:32;;;;;;;7.50;6.90;;;16.60;93.60;;;;;;5066935;28;20443;-73
2023/10/17 13:43:04;;;;;;;7.23;6.53;;;16.60;93.70;;;;;;5039497;28;20765;-72
2023/10/17 13:45:35;;;;;;;6.37;5.87;;;16.60;94.10;;;;;;5054436;28;20468;-72
2023/10/17 13:48:00;;;;;;;9.53;6.90;;;16.50;94.00;;;;;;5047291;28;20729;-71
2023/10/17 13:50:26;;;;;;;6.83;6.07;;;16.50;94.20;;;;;;5035331;28;20428;-74
2023/10/17 13:53:06;;;;;;;6.27;5.77;;;16.50;94.80;;;;;;5034708;28;20194;-74
2023/10/17 13:55:38;;;;;;;7.20;6.60;;;16.50;94.90;;;;;;5037199;28;20170;-78
2023/10/17 13:58:04;;;;;;;7.80;7.07;;;16.50;94.70;;;;;;5018804;28;20775;-70
2023/10/17 14:00:44;;;;;;;5.23;4.83;;;16.60;94.00;;;;;;5048364;28;20424;-76
2023/10/17 14:03:12;;;;;;;6.87;6.27;;;16.60;94.10;;;;;;5053010;28;20439;-76
2023/10/17 14:05:41;;;;;;;4.93;4.50;;;16.60;93.10;;;;;;5054626;28;20396;-75
2023/10/17 14:08:08;;;;;;;6.03;5.23;;;16.60;93.30;;;;;;5054910;28;20423;-76
2023/10/17 14:10:37;;;;;;;6.30;5.80;;;16.60;93.50;;;;;;5054899;28;20895;-74
2023/10/17 14:13:08;;;;;;;5.67;5.13;;;16.70;93.50;;;;;;5054411;28;20543;-73
2023/10/17 14:15:35;;;;;;;34.70;25.40;;;16.80;93.70;;;;;;5037464;28;20454;-76
2023/10/17 14:18:09;;;;;;;192.77;140.67;;;16.80;92.50;;;;;;5024086;28;20496;-76
2023/10/17 14:20:39;;;;;;;8.03;7.10;;;16.90;92.50;;;;;;5048811;28;20554;-76
2023/10/17 14:23:08;;;;;;;4.90;4.50;;;16.90;93.40;;;;;;5052376;28;20909;-76
2023/10/17 14:28:22;;;;;;;5.00;4.60;;;17.10;92.90;;;;;;5036504;28;20405;-76
2023/10/17 14:30:49;;;;;;;4.13;3.83;;;17.10;92.90;;;;;;5053434;28;20738;-75
2023/10/17 14:33:15;;;;;;;3.40;3.20;;;17.20;92.60;;;;;;5035317;28;20237;-77
2023/10/17 14:35:43;;;;;;;4.23;3.93;;;17.20;91.30;;;;;;5033261;28;20436;-74
2023/10/17 14:38:10;;;;;;;5.10;4.80;;;17.20;91.20;;;;;;5034266;28;20425;-77
2023/10/17 14:40:37;;;;;;;4.97;4.67;;;17.20;90.70;;;;;;5043440;28;20419;-62
2023/10/17 14:43:08;;;;;;;5.20;4.10;;;17.20;92.20;;;;;;5036222;28;20412;-77
2023/10/17 14:45:44;;;;;;;6.63;4.40;;;17.20;92.30;;;;;;5038032;28;20430;-75
2023/10/17 14:48:11;;;;;;;4.30;3.90;;;17.30;91.80;;;;;;5049474;28;20425;-79
2023/10/17 14:50:39;;;;;;;4.00;3.70;;;17.40;91.20;;;;;;5053742;28;20404;-66
2023/10/17 14:53:05;;;;;;;3.63;3.43;;;17.30;91.20;;;;;;5052634;28;20455;-77
2023/10/17 14:55:31;;;;;;;3.90;3.70;;;17.30;92.00;;;;;;5052886;28;20807;-78
2023/10/17 14:57:57;;;;;;;3.53;3.30;;;17.20;91.00;;;;;;5045865;28;20753;-80
2023/10/17 15:00:22;;;;;;;4.20;3.90;;;17.20;91.30;;;;;;5053575;28;20470;-77
2023/10/17 15:02:49;;;;;;;5.20;4.80;;;17.20;91.50;;;;;;5050464;28;20180;-79
2023/10/17 15:05:16;;;;;;;4.80;4.50;;;17.20;91.40;;;;;;5016323;28;20209;-78
2023/10/17 15:07:44;;;;;;;4.53;4.23;;;17.10;91.20;;;;;;5032950;28;20401;-67
2023/10/17 15:10:14;;;;;;;4.37;3.97;;;17.10;91.60;;;;;;5016259;28;20444;-78
2023/10/17 15:12:41;;;;;;;4.13;3.93;;;16.90;92.00;;;;;;5033080;28;20457;-65
2023/10/17 15:15:10;;;;;;;4.70;4.37;;;16.90;92.20;;;;;;5015447;28;20457;-79
2023/10/17 15:17:41;;;;;;;4.10;3.90;;;16.70;92.10;;;;;;5033475;28;20463;-77
2023/10/17 15:20:13;;;;;;;4.43;4.13;;;16.50;92.30;;;;;;5033125;28;20396;-78
2023/10/17 15:22:44;;;;;;;3.80;3.50;;;16.50;92.40;;;;;;5015499;28;20432;-65